地図

経路データ

SID SEASON NUMBER BASIN SUBBASIN NAME ISO_TIME NATURE LAT LON WMO_WIND WMO_PRES WMO_AGENCY TRACK_TYPE DIST2LAND LANDFALL IFLAG USA_AGENCY USA_ATCF_ID USA_LAT USA_LON USA_RECORD USA_STATUS USA_WIND USA_PRES USA_SSHS USA_R34_NE USA_R34_SE USA_R34_SW USA_R34_NW USA_R50_NE USA_R50_SE USA_R50_SW USA_R50_NW USA_R64_NE USA_R64_SE USA_R64_SW USA_R64_NW USA_POCI USA_ROCI USA_RMW USA_EYE TOKYO_LAT TOKYO_LON TOKYO_GRADE TOKYO_WIND TOKYO_PRES TOKYO_R50_DIR TOKYO_R50_LONG TOKYO_R50_SHORT TOKYO_R30_DIR TOKYO_R30_LONG TOKYO_R30_SHORT TOKYO_LAND CMA_LAT CMA_LON CMA_CAT CMA_WIND CMA_PRES HKO_LAT HKO_LON HKO_CAT HKO_WIND HKO_PRES NEWDELHI_LAT NEWDELHI_LON NEWDELHI_GRADE NEWDELHI_WIND NEWDELHI_PRES NEWDELHI_CI NEWDELHI_DP NEWDELHI_POCI REUNION_LAT REUNION_LON REUNION_TYPE REUNION_WIND REUNION_PRES REUNION_TNUM REUNION_CI REUNION_RMW REUNION_R34_NE REUNION_R34_SE REUNION_R34_SW REUNION_R34_NW REUNION_R50_NE REUNION_R50_SE REUNION_R50_SW REUNION_R50_NW REUNION_R64_NE REUNION_R64_SE REUNION_R64_SW REUNION_R64_NW BOM_LAT BOM_LON BOM_TYPE BOM_WIND BOM_PRES BOM_TNUM BOM_CI BOM_RMW BOM_R34_NE BOM_R34_SE BOM_R34_SW BOM_R34_NW BOM_R50_NE BOM_R50_SE BOM_R50_SW BOM_R50_NW BOM_R64_NE BOM_R64_SE BOM_R64_SW BOM_R64_NW BOM_ROCI BOM_POCI BOM_EYE BOM_POS_METHOD BOM_PRES_METHOD NADI_LAT NADI_LON NADI_CAT NADI_WIND NADI_PRES WELLINGTON_LAT WELLINGTON_LON WELLINGTON_WIND WELLINGTON_PRES DS824_LAT DS824_LON DS824_STAGE DS824_WIND DS824_PRES TD9636_LAT TD9636_LON TD9636_STAGE TD9636_WIND TD9636_PRES TD9635_LAT TD9635_LON TD9635_WIND TD9635_PRES TD9635_ROCI NEUMANN_LAT NEUMANN_LON NEUMANN_CLASS NEUMANN_WIND NEUMANN_PRES MLC_LAT MLC_LON MLC_CLASS MLC_WIND MLC_PRES USA_GUST BOM_GUST BOM_GUST_PER REUNION_GUST REUNION_GUST_PER USA_SEAHGT USA_SEARAD_NE USA_SEARAD_SE USA_SEARAD_SW USA_SEARAD_NW STORM_SPEED STORM_DIR
1981015S09078 1981 4 SI MM GAELLE 1981-01-14 12:00:00 TS -9.20000 77.9000 main 1718 1718 O_________O_O_ jtwc_sh SH111981 -9.20000 77.9000 25 -1 -9.20000 77.9000 1 25 -9.20000 77.9000 TC 25 11 139
1981015S09078 1981 4 SI MM GAELLE 1981-01-14 15:00:00 TS -9.60310 78.2553 main 1755 1755 P_________P_P_ SH111981 -9.60761 78.2748 25 -1 -9.59406 78.2164 1 25 -9.60761 78.2748 TC 25 10 140
1981015S09078 1981 4 SI MM GAELLE 1981-01-14 18:00:00 TS -9.99346 78.5722 main 1795 1795 O_________P_O_ jtwc_sh SH111981 -10.0000 78.6000 25 -1 -9.98038 78.5167 1 25 -10.0000 78.6000 TC 25 9 144
1981015S09078 1981 4 SI MM GAELLE 1981-01-14 21:00:00 TS -10.3605 78.8196 main 1837 1836 P_________P_P_ SH111981 -10.3650 78.8376 25 -1 -10.3515 78.7836 1 25 -10.3650 78.8376 TC 25 8 149
1981015S09078 1981 4 SI MM GAELLE 1981-01-15 00:00:00 TS -10.7000 79.0000 main 1868 1868 O_________O_O_ jtwc_sh SH111981 -10.7000 79.0000 25 -1 -10.7000 79.0000 1 25 -10.7000 79.0000 TC 25 7 155
1981015S09078 1981 4 SI MM GAELLE 1981-01-15 03:00:00 TS -11.0121 79.1283 main 1900 1900 P_________P_P_ SH111981 -11.0075 79.1151 25 -1 -11.0214 79.1547 1 26 -11.0075 79.1151 TC 25 6 160
1981015S09078 1981 4 SI MM GAELLE 1981-01-15 06:00:00 TS -11.3074 79.2201 main 1933 1933 O_________P_O_ jtwc_sh SH111981 -11.3000 79.2000 25 -1 -11.3223 79.2604 1 27 -11.3000 79.2000 TC 25 6 163
1981015S09078 1981 4 SI MM GAELLE 1981-01-15 09:00:00 TS -11.6040 79.3120 main 1966 1966 P_________P_P_ SH111981 -11.6000 79.3000 27 -1 -11.6121 79.3359 1 28 -11.6000 79.3000 TC 27 6 163
1981015S09078 1981 4 SI MM GAELLE 1981-01-15 12:00:00 TS -11.9000 79.4000 main 1998 1998 O_________O_O_ jtwc_sh SH111981 -11.9000 79.4000 30 -1 -11.9000 79.4000 1 30 -11.9000 79.4000 TC 30 6 163
1981015S09078 1981 4 SI MM GAELLE 1981-01-15 15:00:00 TS -12.2000 79.5018 main 2031 2031 P_________P_P_ SH111981 -12.2000 79.5075 35 0 -12.2000 79.4903 1 33 -12.2000 79.5075 TC 35 6 163
1981015S09078 1981 4 SI MM GAELLE 1981-01-15 18:00:00 TS -12.5000 79.5908 main 2064 2064 O_________P_O_ jtwc_sh SH111981 -12.5000 79.6000 40 0 -12.5000 79.5725 1 37 -12.5000 79.6000 TC 40 6 166
1981015S09078 1981 4 SI MM GAELLE 1981-01-15 21:00:00 TS -12.8000 79.6528 main 2097 2097 P_________P_P_ SH111981 -12.8000 79.6575 42 0 -12.8000 79.6434 1 41 -12.8000 79.6575 TC 42 6 170
1981015S09078 1981 4 SI MM GAELLE 1981-01-16 00:00:00 TS -13.1000 79.7000 main 2131 2131 O_________O_O_ jtwc_sh SH111981 -13.1000 79.7000 45 0 -13.1000 79.7000 2 45 -13.1000 79.7000 TC 45 6 170
1981015S09078 1981 4 SI MM GAELLE 1981-01-16 03:00:00 TS -13.3986 79.7568 main 2164 2164 P_________P_P_ SH111981 -13.4000 79.7575 45 0 -13.3959 79.7556 2 45 -13.4000 79.7575 TC 45 6 171
1981015S09078 1981 4 SI MM GAELLE 1981-01-16 06:00:00 TS -13.6975 79.7983 main 2197 2197 O_________P_O_ jtwc_sh SH111981 -13.7000 79.8000 45 0 -13.6925 79.7949 2 45 -13.7000 79.8000 TC 45 6 175
1981015S09078 1981 4 SI MM GAELLE 1981-01-16 09:00:00 TS -13.9976 79.8139 main 2231 2231 P_________P_P_ SH111981 -14.0000 79.8150 45 0 -13.9928 79.8118 2 45 -14.0000 79.8150 TC 45 6 179
1981015S09078 1981 4 SI MM GAELLE 1981-01-16 12:00:00 TS -14.3000 79.8000 main 2264 2264 O_________O_O_ jtwc_sh SH111981 -14.3000 79.8000 45 0 -14.3000 79.8000 2 45 -14.3000 79.8000 TC 45 6 186
1981015S09078 1981 4 SI MM GAELLE 1981-01-16 15:00:00 TS -14.6036 79.7613 main 2298 2298 P_________P_P_ SH111981 -14.5925 79.7650 45 0 -14.6259 79.7539 2 45 -14.5925 79.7650 TC 45 6 190
1981015S09078 1981 4 SI MM GAELLE 1981-01-16 18:00:00 TS -14.9192 79.6934 main 2332 2332 O_________P_O_ jtwc_sh SH111981 -14.9000 79.7000 45 0 -14.9575 79.6802 2 45 -14.9000 79.7000 TC 45 7 194
1981015S09078 1981 4 SI MM GAELLE 1981-01-16 21:00:00 TS -15.2618 79.5972 main 2372 2353 P_________P_P_ SH111981 -15.2500 79.6001 45 0 -15.2853 79.5914 2 45 -15.2500 79.6001 TC 45 7 195
1981015S09078 1981 4 SI MM GAELLE 1981-01-17 00:00:00 TS -15.6000 79.5000 main 2353 2333 O_________O_O_ jtwc_sh SH111981 -15.6000 79.5000 45 0 -15.6000 79.5000 2 45 -15.6000 79.5000 TC 45 7 193
1981015S09078 1981 4 SI MM GAELLE 1981-01-17 03:00:00 TS -15.9078 79.4470 main 2333 2324 P_________P_P_ SH111981 -15.9150 79.4499 42 0 -15.8934 79.4410 2 42 -15.9150 79.4499 TC 42 6 190
1981015S09078 1981 4 SI MM GAELLE 1981-01-17 06:00:00 TS -16.1908 79.3932 main 2324 2309 O_________P_O_ jtwc_sh SH111981 -16.2000 79.4000 40 0 -16.1724 79.3797 2 40 -16.2000 79.4000 TC 40 6 194
1981015S09078 1981 4 SI MM GAELLE 1981-01-17 09:00:00 TS -16.4517 79.3111 main 2306 2290 P_________P_P_ SH111981 -16.4575 79.3150 37 0 -16.4402 79.3035 2 37 -16.4575 79.3150 TC 37 5 200
1981015S09078 1981 4 SI MM GAELLE 1981-01-17 12:00:00 TS -16.7000 79.2000 main 2290 2275 O_________O_O_ jtwc_sh SH111981 -16.7000 79.2000 35 0 -16.7000 79.2000 2 35 -16.7000 79.2000 TC 35 6 206
1981015S09078 1981 4 SI MM GAELLE 1981-01-17 15:00:00 TS -16.9515 79.0634 main 2272 2247 P_________P_P_ SH111981 -16.9500 79.0650 32 -1 -16.9545 79.0604 2 32 -16.9500 79.0650 TC 32 6 210
1981015S09078 1981 4 SI MM GAELLE 1981-01-17 18:00:00 TS -17.2017 78.8969 main 2247 2221 O_________P_O_ jtwc_sh SH111981 -17.2000 78.9000 30 -1 -17.2052 78.8906 2 30 -17.2000 78.9000 TC 30 6 214
1981015S09078 1981 4 SI MM GAELLE 1981-01-17 21:00:00 TS -17.4511 78.7053 main 2219 2194 P_________P_P_ SH111981 -17.4501 78.7076 27 -1 -17.4533 78.7005 2 27 -17.4501 78.7076 TC 27 6 217
1981015S09078 1981 4 SI MM GAELLE 1981-01-18 00:00:00 TS -17.7000 78.5000 main 2194 O_________O_O_ jtwc_sh SH111981 -17.7000 78.5000 25 -1 -17.7000 78.5000 1 25 -17.7000 78.5000 TC 25 6 218

IBTrACS Databaseについて

本データベースは、米国NOAAが公開する1842年以降の世界の熱帯低気圧のベストトラックデータアーカイブInternational Best Track Archive for Climate Stewardship (IBTrACS)を、ウェブで閲覧しやすい形式に変換したものです。

最終更新日:2021-11-26